Washington Grove, Maryland
Current Conditions -  °F | °C
As of 12:55 PM on Monday 22 Dec 2014 (Local Time) from KGAI Reporting Station
Overcast Overcast  
Wind Chill: 34°   Ceiling: 5000
Heat Index: 34°   Visibility: 8mi
Dew Point: 27°   Wind: 3mph
Humidity: 75%   Direction: 20°NNE
Pressure: 30.24"   Gusts: NA
Location:  39.14°N, 77.18°W
Report Text: KGAI 221755Z 02003KT 8SM FEW034 OVC050 01/M03 A3024 RMK AO1 10010 21020 57027
Loading
Personal Weather Stations






























Interactive Weather Map New forecast layout! Learn more

10-Day Weather Forecast

Advertisements
Track Severe Weather on mobile